createdAt,value
2023-09-20T00:01:53.734Z,96.80
2023-09-20T00:04:22.046Z,96.70
2023-09-20T00:06:49.998Z,96.60
2023-09-20T00:09:19.304Z,97.10
2023-09-20T00:11:47.666Z,97.20
2023-09-20T00:14:15.732Z,97.00
2023-09-20T00:16:43.656Z,97.30
2023-09-20T00:19:11.497Z,97.40
2023-09-20T00:21:39.608Z,97.50
2023-09-20T00:24:08.243Z,97.50
2023-09-20T00:26:37.686Z,97.50
2023-09-20T00:29:06.726Z,97.30
2023-09-20T00:31:34.976Z,97.70
2023-09-20T00:34:04.710Z,97.80
2023-09-20T00:36:33.660Z,98.10
2023-09-20T00:39:01.905Z,98.30
2023-09-20T00:41:30.132Z,98.50
2023-09-20T00:43:59.440Z,98.70
2023-09-20T00:46:28.009Z,98.60
2023-09-20T00:48:56.938Z,98.50
2023-09-20T00:51:25.719Z,98.40
2023-09-20T00:53:56.943Z,98.50
2023-09-20T00:56:25.725Z,98.60
2023-09-20T00:58:56.464Z,98.80
2023-09-20T01:01:28.598Z,98.90
2023-09-20T01:03:57.478Z,99.10
2023-09-20T01:06:27.964Z,99.20
2023-09-20T01:08:56.762Z,99.10
2023-09-20T01:11:24.933Z,98.70
2023-09-20T01:13:53.506Z,98.90
2023-09-20T01:16:21.523Z,99.30
2023-09-20T01:18:51.606Z,99.70
2023-09-20T01:21:19.540Z,99.30
2023-09-20T01:23:50.470Z,99.00
2023-09-20T01:26:19.369Z,99.00
2023-09-20T01:28:47.292Z,99.00
2023-09-20T01:31:15.312Z,99.20
2023-09-20T01:33:43.175Z,99.40
2023-09-20T01:36:11.024Z,99.10
2023-09-20T01:38:39.221Z,99.10
2023-09-20T01:41:08.722Z,99.10
2023-09-20T01:43:38.972Z,99.20
2023-09-20T01:46:06.916Z,99.10
2023-09-20T01:48:35.522Z,99.60
2023-09-20T01:51:03.841Z,99.50
2023-09-20T01:53:33.824Z,99.50
2023-09-20T01:56:01.946Z,99.80
2023-09-20T01:58:31.289Z,99.90
2023-09-20T02:00:59.258Z,99.90
2023-09-20T02:03:28.881Z,99.90
2023-09-20T02:06:00.145Z,99.90
2023-09-20T02:08:28.592Z,99.90
2023-09-20T02:10:57.775Z,99.90
2023-09-20T02:13:25.778Z,99.90
2023-09-20T02:15:55.428Z,99.90
2023-09-20T02:18:23.940Z,99.90
2023-09-20T02:20:51.924Z,99.90
2023-09-20T02:23:19.948Z,99.90
2023-09-20T02:25:49.456Z,99.90
2023-09-20T02:28:17.962Z,99.90
2023-09-20T02:30:46.515Z,99.90
2023-09-20T02:33:17.488Z,99.90
2023-09-20T02:35:46.266Z,99.90
2023-09-20T02:38:14.565Z,99.90
2023-09-20T02:40:42.480Z,99.90
2023-09-20T02:43:13.213Z,99.90
2023-09-20T02:45:41.923Z,99.90
2023-09-20T02:48:10.941Z,99.90
2023-09-20T02:50:42.726Z,99.90
2023-09-20T02:53:10.941Z,99.90
2023-09-20T02:55:40.072Z,99.90
2023-09-20T02:58:08.382Z,99.90
2023-09-20T03:00:39.710Z,99.90
2023-09-20T03:03:08.905Z,99.90
2023-09-20T03:05:39.135Z,99.90
2023-09-20T03:08:12.846Z,99.90
2023-09-20T03:10:42.763Z,99.80
2023-09-20T03:13:17.330Z,99.90
2023-09-20T03:15:45.957Z,99.90
2023-09-20T03:18:14.996Z,99.90
2023-09-20T03:20:45.173Z,99.90
2023-09-20T03:23:14.886Z,99.90
2023-09-20T03:25:43.910Z,99.90
2023-09-20T03:28:11.815Z,99.90
2023-09-20T03:30:40.385Z,99.90
2023-09-20T03:33:10.337Z,99.90
2023-09-20T03:35:38.964Z,99.90
2023-09-20T03:38:07.236Z,99.90
2023-09-20T03:40:38.392Z,99.90
2023-09-20T03:43:08.790Z,99.90
2023-09-20T03:45:36.777Z,99.90
2023-09-20T03:48:06.859Z,99.90
2023-09-20T03:50:34.884Z,99.90
2023-09-20T03:53:02.880Z,99.90
2023-09-20T03:55:30.764Z,99.90
2023-09-20T03:57:59.960Z,99.90
2023-09-20T04:00:30.159Z,99.90
2023-09-20T04:02:58.565Z,99.90
2023-09-20T04:05:43.521Z,99.90
2023-09-20T04:08:13.763Z,99.90
2023-09-20T04:10:42.779Z,99.90
2023-09-20T04:13:12.235Z,99.90
2023-09-20T04:15:43.690Z,99.90
2023-09-20T04:18:11.883Z,99.90
2023-09-20T04:20:40.735Z,99.90
2023-09-20T04:23:10.929Z,99.90
2023-09-20T04:25:38.917Z,99.90
2023-09-20T04:28:07.052Z,99.90
2023-09-20T04:30:37.715Z,99.90
2023-09-20T04:33:06.426Z,99.90
2023-09-20T04:35:35.342Z,99.90
2023-09-20T04:38:03.268Z,99.90
2023-09-20T04:40:31.150Z,99.90
2023-09-20T04:42:58.990Z,99.90
2023-09-20T04:45:26.917Z,99.90
2023-09-20T04:47:58.300Z,99.90
2023-09-20T04:50:26.746Z,99.90
2023-09-20T04:52:55.247Z,99.90
2023-09-20T04:55:23.236Z,99.90
2023-09-20T04:57:51.331Z,99.90
2023-09-20T05:00:27.152Z,99.90
2023-09-20T05:02:56.407Z,99.90
2023-09-20T05:05:25.018Z,99.90
2023-09-20T05:07:53.157Z,99.90
2023-09-20T05:10:21.057Z,99.90
2023-09-20T05:12:49.572Z,99.90
2023-09-20T05:15:17.644Z,99.90
2023-09-20T05:17:46.708Z,99.90
2023-09-20T05:20:16.152Z,99.90
2023-09-20T05:22:44.022Z,99.90
2023-09-20T05:25:12.179Z,99.90
2023-09-20T05:27:40.057Z,99.90
2023-09-20T05:30:09.813Z,99.90
2023-09-20T05:32:37.994Z,99.90
2023-09-20T05:35:07.900Z,99.90
2023-09-20T05:37:40.105Z,99.90
2023-09-20T05:40:14.960Z,99.90
2023-09-20T05:42:42.854Z,99.90
2023-09-20T05:45:11.385Z,99.90
2023-09-20T05:47:39.437Z,99.90
2023-09-20T05:50:11.304Z,99.90
2023-09-20T05:52:43.557Z,99.90
2023-09-20T05:55:12.912Z,99.90
2023-09-20T05:57:41.212Z,99.90
2023-09-20T06:00:17.119Z,99.90
2023-09-20T06:02:46.165Z,99.90
2023-09-20T06:05:16.123Z,99.90
2023-09-20T06:07:46.585Z,99.90
2023-09-20T06:10:16.624Z,99.90
2023-09-20T06:12:44.502Z,99.90
2023-09-20T06:15:14.716Z,99.90
2023-09-20T06:17:44.585Z,99.90
2023-09-20T06:20:14.426Z,99.90
2023-09-20T06:22:42.475Z,99.90
2023-09-20T06:25:12.994Z,99.90
2023-09-20T06:27:41.208Z,99.90
2023-09-20T06:30:14.055Z,99.90
2023-09-20T06:32:43.198Z,99.90
2023-09-20T06:35:12.229Z,99.90
2023-09-20T06:37:40.923Z,99.90
2023-09-20T06:40:22.531Z,99.90
2023-09-20T06:42:51.524Z,99.90
2023-09-20T06:45:19.520Z,99.90
2023-09-20T06:47:47.829Z,99.90
2023-09-20T06:50:15.876Z,99.90
2023-09-20T06:52:44.859Z,99.90
2023-09-20T06:55:15.194Z,99.90
2023-09-20T06:57:43.248Z,99.90
2023-09-20T07:00:28.146Z,99.90
2023-09-20T07:02:57.488Z,99.90
2023-09-20T07:05:30.063Z,99.90
2023-09-20T07:07:59.879Z,99.90
2023-09-20T07:10:30.999Z,99.90
2023-09-20T07:12:59.301Z,99.90
2023-09-20T07:15:29.410Z,99.90
2023-09-20T07:18:12.850Z,99.90
2023-09-20T07:20:42.348Z,99.90
2023-09-20T07:23:14.221Z,99.90
2023-09-20T07:25:44.508Z,99.90
2023-09-20T07:28:12.786Z,99.90
2023-09-20T07:30:45.602Z,99.90
2023-09-20T07:33:20.391Z,99.90
2023-09-20T07:35:50.818Z,99.90
2023-09-20T07:38:26.852Z,99.90
2023-09-20T07:41:04.025Z,99.90
2023-09-20T07:43:32.049Z,99.90
2023-09-20T07:46:04.416Z,99.90
2023-09-20T07:48:34.861Z,99.90
2023-09-20T07:51:05.350Z,99.90
2023-09-20T07:53:33.470Z,99.90
2023-09-20T07:56:04.852Z,99.90
2023-09-20T07:58:33.490Z,99.90
2023-09-20T08:01:01.346Z,99.90
2023-09-20T08:03:33.619Z,99.90
2023-09-20T08:06:01.743Z,99.90
2023-09-20T08:08:29.740Z,99.90
2023-09-20T08:11:11.275Z,99.90
2023-09-20T08:13:42.714Z,99.90
2023-09-20T08:16:13.731Z,99.90
2023-09-20T08:19:00.029Z,99.90
2023-09-20T08:21:28.296Z,99.60
2023-09-20T08:24:13.768Z,99.90
2023-09-20T08:26:59.152Z,98.90
2023-09-20T08:29:45.923Z,99.20
2023-09-20T08:32:31.690Z,99.30
2023-09-20T08:35:17.428Z,98.70
2023-09-20T08:38:03.107Z,98.40
2023-09-20T08:40:48.983Z,98.40
2023-09-20T08:43:34.585Z,98.00
2023-09-20T08:46:23.350Z,97.60
2023-09-20T08:49:09.750Z,97.20
2023-09-20T08:52:02.818Z,97.00
2023-09-20T08:54:49.272Z,96.60
2023-09-20T08:57:35.702Z,96.80
2023-09-20T09:00:19.409Z,96.70
2023-09-20T09:02:52.976Z,96.80
2023-09-20T09:05:22.775Z,97.20
2023-09-20T09:07:50.772Z,97.30
2023-09-20T09:10:19.335Z,97.60
2023-09-20T09:12:52.273Z,97.30
2023-09-20T09:15:20.712Z,98.00
2023-09-20T09:17:50.447Z,98.40
2023-09-20T09:20:20.433Z,98.40
2023-09-20T09:22:49.273Z,98.40
2023-09-20T09:25:19.538Z,98.10
2023-09-20T09:27:47.593Z,98.50
2023-09-20T09:30:17.419Z,98.40
2023-09-20T09:32:48.166Z,97.90
2023-09-20T09:35:27.741Z,97.70
2023-09-20T09:38:05.173Z,98.20
2023-09-20T09:40:33.984Z,98.40
2023-09-20T09:43:14.808Z,98.30
2023-09-20T09:45:45.440Z,97.20
2023-09-20T09:48:17.311Z,97.50
2023-09-20T09:50:48.602Z,97.80
2023-09-20T09:53:17.595Z,97.10
2023-09-20T09:55:48.153Z,97.40
2023-09-20T09:58:16.113Z,97.10
2023-09-20T10:00:47.059Z,96.80
2023-09-20T10:03:26.331Z,96.90
2023-09-20T10:06:04.473Z,96.30
2023-09-20T10:08:35.282Z,96.70
2023-09-20T10:11:06.549Z,96.60
2023-09-20T10:13:35.294Z,97.80
2023-09-20T10:16:05.423Z,95.60
2023-09-20T10:18:50.793Z,95.80
2023-09-20T10:21:22.377Z,95.90
2023-09-20T10:23:50.254Z,95.70
2023-09-20T10:26:18.380Z,95.50
2023-09-20T10:28:47.067Z,95.80
2023-09-20T10:31:19.819Z,95.40
2023-09-20T10:33:49.356Z,95.70
2023-09-20T10:36:25.338Z,95.20
2023-09-20T10:39:14.621Z,95.60
2023-09-20T10:41:43.634Z,94.90
2023-09-20T10:44:27.493Z,94.50
2023-09-20T10:46:55.603Z,94.40
2023-09-20T10:49:50.692Z,94.60
2023-09-20T10:53:00.093Z,94.30
2023-09-20T10:55:37.529Z,94.60
2023-09-20T10:58:06.223Z,94.70
2023-09-20T11:00:37.854Z,94.80
2023-09-20T11:03:07.793Z,94.70
2023-09-20T11:05:36.050Z,94.40
2023-09-20T11:08:09.398Z,94.30
2023-09-20T11:10:37.854Z,93.90
2023-09-20T11:13:09.722Z,95.20
2023-09-20T11:15:42.775Z,94.60
2023-09-20T11:18:10.935Z,94.10
2023-09-20T11:20:39.392Z,93.90
2023-09-20T11:23:10.449Z,93.30
2023-09-20T11:25:38.483Z,93.00
2023-09-20T11:28:08.972Z,93.70
2023-09-20T11:30:37.268Z,93.90
2023-09-20T11:33:05.945Z,94.60
2023-09-20T11:35:34.815Z,94.40
2023-09-20T11:38:03.511Z,93.40
2023-09-20T11:40:34.525Z,92.80
2023-09-20T11:43:04.889Z,93.20
2023-09-20T11:45:52.976Z,93.30
2023-09-20T11:48:25.163Z,92.40
2023-09-20T11:50:53.672Z,92.60
2023-09-20T11:53:22.197Z,92.70
2023-09-20T11:55:51.616Z,93.70
2023-09-20T11:58:22.032Z,92.80
2023-09-20T12:00:50.984Z,92.60
2023-09-20T12:03:19.330Z,92.70
2023-09-20T12:05:47.382Z,92.90
2023-09-20T12:08:15.673Z,92.80
2023-09-20T12:10:43.780Z,92.40
2023-09-20T12:13:13.013Z,92.10
2023-09-20T12:15:44.219Z,91.70
2023-09-20T12:18:15.335Z,91.60
2023-09-20T12:20:43.578Z,91.70
2023-09-20T12:23:13.259Z,91.10
2023-09-20T12:25:41.550Z,91.50
2023-09-20T12:28:10.254Z,91.30
2023-09-20T12:30:40.980Z,92.10
2023-09-20T12:33:09.594Z,91.90
2023-09-20T12:35:41.733Z,92.00
2023-09-20T12:38:09.983Z,91.80
2023-09-20T12:40:37.838Z,92.20
2023-09-20T12:43:06.968Z,91.90
2023-09-20T12:45:34.810Z,92.10
2023-09-20T12:48:04.097Z,91.20
2023-09-20T12:50:35.073Z,91.80
2023-09-20T12:53:02.963Z,91.80
2023-09-20T12:55:32.126Z,91.40
2023-09-20T12:58:00.332Z,90.90
2023-09-20T13:00:42.957Z,91.10
2023-09-20T13:03:16.298Z,90.20
2023-09-20T13:05:45.519Z,90.80
2023-09-20T13:08:14.504Z,91.30
2023-09-20T13:10:42.694Z,91.50
2023-09-20T13:13:10.818Z,91.30
2023-09-20T13:15:40.249Z,91.50
2023-09-20T13:18:11.042Z,91.60
2023-09-20T13:20:42.580Z,92.10
2023-09-20T13:23:11.251Z,92.30
2023-09-20T13:25:41.138Z,92.30
2023-09-20T13:28:09.853Z,92.30
2023-09-20T13:30:38.887Z,92.60
2023-09-20T13:33:07.546Z,92.30
2023-09-20T13:35:36.050Z,92.30
2023-09-20T13:38:06.199Z,92.60
2023-09-20T13:40:35.309Z,92.20
2023-09-20T13:43:03.419Z,91.10
2023-09-20T13:45:33.384Z,91.50
2023-09-20T13:48:01.770Z,91.90
2023-09-20T13:50:30.001Z,92.00
2023-09-20T13:52:58.371Z,92.20
2023-09-20T13:55:32.493Z,92.40
2023-09-20T13:58:02.444Z,92.70
2023-09-20T14:00:31.030Z,92.20
2023-09-20T14:03:00.162Z,91.50
2023-09-20T14:05:28.723Z,91.60
2023-09-20T14:07:57.498Z,91.90
2023-09-20T14:10:32.837Z,92.40
2023-09-20T14:13:01.227Z,91.70
2023-09-20T14:15:30.850Z,91.80
2023-09-20T14:18:01.478Z,92.10
2023-09-20T14:20:30.518Z,92.10
2023-09-20T14:22:59.160Z,91.50
2023-09-20T14:25:29.614Z,91.60
2023-09-20T14:27:58.058Z,91.60
2023-09-20T14:30:26.192Z,92.00
2023-09-20T14:32:56.253Z,92.40
2023-09-20T14:35:25.327Z,91.30
2023-09-20T14:37:55.577Z,92.10
2023-09-20T14:40:25.618Z,91.50
2023-09-20T14:42:57.489Z,91.50
2023-09-20T14:45:27.968Z,91.80
2023-09-20T14:47:57.160Z,92.10
2023-09-20T14:50:27.488Z,91.50
2023-09-20T14:52:56.810Z,91.70
2023-09-20T14:55:26.887Z,91.60
2023-09-20T14:57:57.394Z,91.80
2023-09-20T15:00:27.301Z,91.70
2023-09-20T15:02:57.369Z,92.00
2023-09-20T15:05:26.430Z,91.80
2023-09-20T15:07:56.168Z,92.30
2023-09-20T15:10:25.770Z,91.60
2023-09-20T15:12:58.686Z,91.40
2023-09-20T15:15:27.374Z,91.50
2023-09-20T15:17:55.425Z,91.10
2023-09-20T15:20:24.946Z,91.10
2023-09-20T15:22:52.948Z,91.20
2023-09-20T15:25:20.921Z,90.90
2023-09-20T15:27:51.234Z,91.00
2023-09-20T15:30:21.012Z,91.30
2023-09-20T15:32:49.073Z,91.10
2023-09-20T15:35:16.990Z,91.00
2023-09-20T15:37:47.020Z,91.10
2023-09-20T15:40:16.972Z,90.60
2023-09-20T15:42:47.309Z,90.90
2023-09-20T15:45:18.134Z,90.90
2023-09-20T15:47:48.534Z,91.30
2023-09-20T15:50:18.928Z,91.20
2023-09-20T15:52:47.083Z,91.30
2023-09-20T15:55:16.896Z,91.10
2023-09-20T15:57:45.503Z,91.70
2023-09-20T16:00:17.612Z,91.40
2023-09-20T16:02:47.457Z,91.90
2023-09-20T16:05:16.619Z,92.00
2023-09-20T16:07:45.532Z,92.10
2023-09-20T16:10:18.686Z,92.20
2023-09-20T16:12:47.478Z,92.40
2023-09-20T16:15:17.303Z,92.30
2023-09-20T16:17:48.423Z,92.40
2023-09-20T16:20:16.071Z,92.40
2023-09-20T16:22:44.685Z,92.40
2023-09-20T16:25:13.305Z,92.60
2023-09-20T16:27:41.254Z,92.70
2023-09-20T16:30:10.386Z,93.00
2023-09-20T16:32:40.116Z,93.30
2023-09-20T16:35:11.978Z,93.20
2023-09-20T16:37:39.918Z,93.30
2023-09-20T16:40:09.142Z,93.20
2023-09-20T16:42:37.095Z,93.40
2023-09-20T16:45:05.856Z,93.60
2023-09-20T16:47:33.807Z,93.90
2023-09-20T16:50:01.771Z,94.30
2023-09-20T16:52:31.102Z,94.50
2023-09-20T16:54:59.091Z,94.20
2023-09-20T16:57:26.953Z,93.80
2023-09-20T16:59:54.800Z,93.80
2023-09-20T17:02:24.898Z,94.10
2023-09-20T17:04:52.906Z,94.20
2023-09-20T17:07:20.781Z,94.30
2023-09-20T17:09:50.340Z,94.50
2023-09-20T17:12:18.276Z,94.00
2023-09-20T17:14:47.236Z,93.90
2023-09-20T17:17:15.161Z,93.80
2023-09-20T17:19:44.190Z,93.80
2023-09-20T17:22:14.240Z,94.00
2023-09-20T17:24:42.140Z,94.40
2023-09-20T17:27:27.047Z,94.80
2023-09-20T17:29:58.354Z,95.20
2023-09-20T17:32:26.541Z,95.10
2023-09-20T17:34:55.458Z,95.20
2023-09-20T17:37:22.406Z,95.30
2023-09-20T17:39:50.212Z,95.40
2023-09-20T17:42:19.408Z,95.70
2023-09-20T17:44:47.289Z,96.00
2023-09-20T17:47:15.571Z,96.40
2023-09-20T17:49:43.425Z,96.50
2023-09-20T17:52:12.284Z,96.70
2023-09-20T17:54:40.167Z,97.00
2023-09-20T17:57:09.119Z,97.10
2023-09-20T17:59:39.661Z,97.30
2023-09-20T18:02:10.821Z,97.10
2023-09-20T18:04:40.705Z,97.70
2023-09-20T18:07:08.759Z,97.90
2023-09-20T18:09:36.645Z,97.80
2023-09-20T18:12:05.332Z,97.70
2023-09-20T18:14:33.362Z,98.00
2023-09-20T18:17:02.808Z,98.20
2023-09-20T18:19:31.553Z,98.50
2023-09-20T18:21:59.525Z,98.60
2023-09-20T18:24:27.369Z,98.60
2023-09-20T18:26:58.418Z,98.70
2023-09-20T18:29:26.596Z,98.60
2023-09-20T18:31:54.566Z,98.70
2023-09-20T18:34:29.189Z,98.60
2023-09-20T18:36:57.075Z,98.70
2023-09-20T18:39:25.002Z,98.90
2023-09-20T18:41:52.942Z,99.00
2023-09-20T18:44:20.851Z,98.80
2023-09-20T18:46:49.234Z,98.90
2023-09-20T18:49:17.503Z,99.10
2023-09-20T18:51:46.662Z,99.20
2023-09-20T18:54:15.008Z,99.60
2023-09-20T18:56:43.012Z,99.20
2023-09-20T18:59:13.146Z,99.20
2023-09-20T19:01:41.781Z,99.20
2023-09-20T19:04:10.238Z,99.20
2023-09-20T19:06:38.764Z,99.20
2023-09-20T19:09:08.138Z,99.40
2023-09-20T19:11:36.445Z,99.50
2023-09-20T19:14:08.075Z,99.50
2023-09-20T19:16:36.099Z,99.40
2023-09-20T19:19:04.088Z,99.60
2023-09-20T19:21:33.026Z,99.70
2023-09-20T19:24:06.554Z,99.80
2023-09-20T19:26:36.116Z,99.90
2023-09-20T19:29:04.529Z,99.90
2023-09-20T19:31:32.384Z,99.90
2023-09-20T19:34:00.420Z,99.90
2023-09-20T19:36:30.049Z,99.90
2023-09-20T19:38:58.014Z,99.90
2023-09-20T19:41:27.194Z,99.90
2023-09-20T19:43:56.401Z,99.90
2023-09-20T19:46:25.547Z,99.90
2023-09-20T19:48:53.712Z,99.90
2023-09-20T19:51:22.318Z,99.90
2023-09-20T19:53:50.222Z,99.90
2023-09-20T19:56:18.615Z,99.90
2023-09-20T19:58:46.934Z,99.90
2023-09-20T20:01:16.537Z,99.90
2023-09-20T20:03:45.001Z,99.90
2023-09-20T20:06:16.721Z,99.90
2023-09-20T20:08:45.254Z,99.90
2023-09-20T20:11:14.074Z,99.90
2023-09-20T20:13:43.326Z,99.90
2023-09-20T20:16:15.035Z,99.90
2023-09-20T20:18:46.109Z,99.90
2023-09-20T20:21:15.870Z,99.90
2023-09-20T20:23:45.310Z,99.90
2023-09-20T20:26:14.004Z,99.90
2023-09-20T20:28:42.333Z,99.90
2023-09-20T20:31:11.081Z,99.90
2023-09-20T20:33:39.654Z,99.90
2023-09-20T20:36:10.243Z,99.90
2023-09-20T20:38:39.156Z,99.90
2023-09-20T20:41:08.439Z,99.90
2023-09-20T20:43:37.993Z,99.90
2023-09-20T20:46:15.874Z,99.90
2023-09-20T20:48:44.813Z,99.80
2023-09-20T20:51:15.914Z,99.00
2023-09-20T20:53:47.913Z,98.50
2023-09-20T20:56:17.327Z,98.20
2023-09-20T20:58:47.444Z,97.40
2023-09-20T21:01:15.345Z,97.30
2023-09-20T21:03:45.591Z,97.10
2023-09-20T21:06:16.542Z,96.90
2023-09-20T21:08:48.092Z,97.30
2023-09-20T21:11:18.153Z,97.40
2023-09-20T21:13:46.481Z,97.60
2023-09-20T21:16:15.380Z,97.90
2023-09-20T21:18:44.698Z,97.80
2023-09-20T21:21:13.385Z,98.20
2023-09-20T21:23:43.851Z,98.40
2023-09-20T21:26:11.718Z,97.60
2023-09-20T21:28:39.820Z,97.90
2023-09-20T21:31:13.138Z,97.90
2023-09-20T21:33:41.529Z,98.10
2023-09-20T21:36:09.623Z,98.20
2023-09-20T21:38:38.591Z,98.30
2023-09-20T21:41:08.294Z,98.40
2023-09-20T21:43:36.171Z,98.50
2023-09-20T21:46:04.064Z,98.70
2023-09-20T21:48:32.583Z,98.70
2023-09-20T21:51:00.993Z,98.70
2023-09-20T21:53:28.893Z,98.90
2023-09-20T21:55:56.946Z,99.00
2023-09-20T21:58:26.344Z,99.00
2023-09-20T22:00:54.288Z,99.20
2023-09-20T22:03:23.312Z,99.50
2023-09-20T22:05:51.211Z,99.90
2023-09-20T22:08:23.263Z,99.90
2023-09-20T22:10:58.210Z,99.90
2023-09-20T22:13:27.740Z,99.90
2023-09-20T22:15:55.686Z,99.90
2023-09-20T22:18:27.674Z,99.90
2023-09-20T22:21:08.862Z,99.90
2023-09-20T22:23:37.975Z,99.90
2023-09-20T22:26:07.817Z,99.90
2023-09-20T22:28:37.566Z,99.90
2023-09-20T22:31:06.399Z,99.90
2023-09-20T22:33:37.603Z,99.90
2023-09-20T22:36:15.131Z,99.90
2023-09-20T22:38:45.387Z,99.90
2023-09-20T22:41:16.722Z,99.90
2023-09-20T22:43:47.088Z,99.90
2023-09-20T22:46:16.173Z,99.90
2023-09-20T22:48:44.809Z,99.90
2023-09-20T22:51:13.023Z,99.90
2023-09-20T22:53:40.979Z,99.90
2023-09-20T22:56:11.386Z,99.90
2023-09-20T22:58:39.761Z,99.90
2023-09-20T23:01:09.894Z,99.90
2023-09-20T23:03:39.974Z,99.90
2023-09-20T23:06:08.344Z,99.90
2023-09-20T23:08:36.512Z,99.90
2023-09-20T23:11:10.470Z,99.90
2023-09-20T23:13:40.508Z,99.90
2023-09-20T23:16:17.258Z,99.90
2023-09-20T23:18:47.416Z,99.90
2023-09-20T23:21:17.244Z,99.90
2023-09-20T23:23:48.405Z,99.90
2023-09-20T23:26:17.072Z,99.90
2023-09-20T23:28:45.172Z,99.90
2023-09-20T23:31:17.296Z,99.90
2023-09-20T23:33:47.250Z,99.90
2023-09-20T23:36:16.481Z,99.90
2023-09-20T23:38:45.294Z,99.90
2023-09-20T23:41:16.673Z,99.90
2023-09-20T23:43:45.257Z,99.90
2023-09-20T23:46:21.110Z,99.90
2023-09-20T23:48:51.225Z,99.90
2023-09-20T23:51:20.150Z,99.90
2023-09-20T23:53:48.470Z,99.90
2023-09-20T23:56:18.188Z,99.90
2023-09-20T23:58:47.211Z,99.90
